createdAt,value
2019-02-19T00:00:49.348Z,7.82
2019-02-19T00:04:54.516Z,7.77
2019-02-19T00:08:59.666Z,7.96
2019-02-19T00:13:04.678Z,8.03
2019-02-19T00:17:21.989Z,8.06
2019-02-19T00:21:27.183Z,8.04
2019-02-19T00:36:47.810Z,8.21
2019-02-19T00:41:49.976Z,8.16
2019-02-19T00:45:55.141Z,8.15
2019-02-19T00:50:00.223Z,8.19
2019-02-19T00:54:05.297Z,8.28
2019-02-19T00:58:10.486Z,8.20
2019-02-19T01:02:15.643Z,8.23
2019-02-19T01:06:39.829Z,8.15
2019-02-19T01:10:44.999Z,8.05
2019-02-19T01:14:50.209Z,8.01
2019-02-19T01:18:55.451Z,7.90
2019-02-19T01:23:00.578Z,7.89
2019-02-19T01:27:05.705Z,7.93
2019-02-19T01:31:22.360Z,7.95
2019-02-19T01:35:27.629Z,8.03
2019-02-19T01:39:32.726Z,7.86
2019-02-19T01:43:56.909Z,7.86
2019-02-19T01:48:02.099Z,7.86
2019-02-19T01:52:07.217Z,7.76
2019-02-19T01:56:23.830Z,7.79
2019-02-19T02:00:29.048Z,7.79
2019-02-19T02:04:34.230Z,7.82
2019-02-19T02:08:39.388Z,7.73
2019-02-19T02:12:44.923Z,7.56
2019-02-19T02:16:50.084Z,7.77
2019-02-19T02:20:55.344Z,7.72
2019-02-19T02:25:00.493Z,7.74
2019-02-19T02:29:24.659Z,7.67
2019-02-19T02:33:48.903Z,7.72
2019-02-19T02:37:54.052Z,7.66
2019-02-19T02:41:59.224Z,7.53
2019-02-19T02:46:04.345Z,7.44
2019-02-19T02:50:09.426Z,7.40
2019-02-19T02:54:14.657Z,7.44
2019-02-19T03:02:36.497Z,7.24
2019-02-19T03:07:00.727Z,7.23
2019-02-19T03:11:05.787Z,7.16
2019-02-19T03:15:29.880Z,7.11
2019-02-19T03:19:34.963Z,7.04
2019-02-19T03:27:56.532Z,7.08
2019-02-19T03:32:03.252Z,7.10
2019-02-19T03:36:08.390Z,7.10
2019-02-19T03:40:13.821Z,6.98
2019-02-19T03:48:35.612Z,6.95
2019-02-19T03:52:40.752Z,6.78
2019-02-19T04:01:02.119Z,6.72
2019-02-19T04:05:07.302Z,6.75
2019-02-19T04:09:12.386Z,6.81
2019-02-19T04:13:17.588Z,6.77
2019-02-19T04:17:22.669Z,6.84
2019-02-19T04:21:27.776Z,6.72
2019-02-19T04:25:32.912Z,6.73
2019-02-19T04:29:37.985Z,6.71
2019-02-19T04:34:02.179Z,6.74
2019-02-19T04:38:26.233Z,6.73
2019-02-19T04:42:31.391Z,6.75
2019-02-19T04:46:36.608Z,6.71
2019-02-19T04:54:58.668Z,6.77
2019-02-19T04:59:15.040Z,6.74
2019-02-19T05:03:20.153Z,6.69
2019-02-19T05:07:44.354Z,6.75
2019-02-19T05:11:49.555Z,6.78
2019-02-19T05:16:13.663Z,6.75
2019-02-19T05:20:34.247Z,6.85
2019-02-19T05:24:39.722Z,6.82
2019-02-19T05:28:44.975Z,6.82
2019-02-19T05:32:50.101Z,6.88
2019-02-19T05:36:56.879Z,6.83
2019-02-19T05:41:02.033Z,6.81
2019-02-19T05:45:07.495Z,6.81
2019-02-19T05:49:12.628Z,6.81
2019-02-19T05:53:17.792Z,6.80
2019-02-19T05:57:22.928Z,6.78
2019-02-19T06:01:39.579Z,6.72
2019-02-19T06:05:44.686Z,6.75
2019-02-19T06:09:49.836Z,6.68
2019-02-19T06:14:13.929Z,6.59
2019-02-19T06:18:38.177Z,6.56
2019-02-19T06:22:43.385Z,6.50
2019-02-19T06:26:50.061Z,6.53
2019-02-19T06:31:07.094Z,6.53
2019-02-19T06:35:12.253Z,6.49
2019-02-19T06:39:17.398Z,6.47
2019-02-19T06:43:22.553Z,6.46
2019-02-19T06:47:27.699Z,6.44
2019-02-19T06:51:32.839Z,6.40
2019-02-19T06:55:37.947Z,6.42
2019-02-19T07:04:13.409Z,6.33
2019-02-19T07:08:18.600Z,6.28
2019-02-19T07:12:23.774Z,6.31
2019-02-19T07:16:30.455Z,6.46
2019-02-19T07:20:35.566Z,6.38
2019-02-19T07:24:40.648Z,6.40
2019-02-19T07:33:03.064Z,6.46
2019-02-19T07:37:08.223Z,6.57
2019-02-19T07:41:32.482Z,6.59
2019-02-19T07:45:49.291Z,6.58
2019-02-19T07:49:54.367Z,6.53
2019-02-19T07:53:59.471Z,6.43
2019-02-19T07:58:04.646Z,6.48
2019-02-19T08:02:09.864Z,6.45
2019-02-19T08:06:14.916Z,6.48
2019-02-19T08:14:49.905Z,6.46
2019-02-19T08:18:55.047Z,6.63
2019-02-19T08:27:17.122Z,7.38
2019-02-19T08:31:22.087Z,7.66
2019-02-19T08:35:27.279Z,7.84
2019-02-19T08:39:32.392Z,8.02
2019-02-19T08:43:37.455Z,8.44
2019-02-19T08:47:43.102Z,8.39
2019-02-19T08:51:58.460Z,8.54
2019-02-19T08:56:03.513Z,8.62
2019-02-19T09:00:09.547Z,8.67
2019-02-19T09:04:15.592Z,8.71
2019-02-19T09:12:57.476Z,8.93
2019-02-19T09:17:21.633Z,8.85
2019-02-19T09:21:38.374Z,9.00
2019-02-19T09:25:43.497Z,9.00
2019-02-19T09:29:48.616Z,8.57
2019-02-19T09:33:53.792Z,8.53
2019-02-19T09:38:18.152Z,8.58
2019-02-19T09:42:23.265Z,8.62
2019-02-19T09:46:39.698Z,8.72
2019-02-19T09:50:45.118Z,9.19
2019-02-19T09:54:50.119Z,9.46
2019-02-19T09:58:55.571Z,9.60
2019-02-19T10:03:00.663Z,9.06
2019-02-19T10:07:05.743Z,9.15
2019-02-19T10:11:30.204Z,9.38
2019-02-19T10:15:35.319Z,9.23
2019-02-19T10:19:40.392Z,9.23
2019-02-19T10:23:45.483Z,9.06
2019-02-19T10:27:50.604Z,9.10
2019-02-19T10:31:55.738Z,9.07
2019-02-19T10:36:00.848Z,9.34
2019-02-19T10:40:06.683Z,9.40
2019-02-19T10:44:11.863Z,9.56
2019-02-19T10:48:19.341Z,9.88
2019-02-19T10:52:29.720Z,9.98
2019-02-19T10:56:40.322Z,9.59
2019-02-19T11:05:02.764Z,10.88
2019-02-19T11:09:09.481Z,10.45
2019-02-19T11:13:14.595Z,10.41
2019-02-19T11:17:19.935Z,9.87
2019-02-19T11:21:45.579Z,9.67
2019-02-19T11:26:09.706Z,9.46
2019-02-19T11:30:15.913Z,9.61
2019-02-19T11:34:21.209Z,9.98
2019-02-19T11:38:26.252Z,10.39
2019-02-19T11:42:31.384Z,10.68
2019-02-19T11:46:36.486Z,10.92
2019-02-19T11:50:41.994Z,11.01
2019-02-19T11:54:47.195Z,11.16
2019-02-19T11:58:52.384Z,11.18
2019-02-19T12:02:57.467Z,10.80
2019-02-19T12:07:21.576Z,11.28
2019-02-19T12:11:26.786Z,11.05
2019-02-19T12:19:49.016Z,10.18
2019-02-19T12:23:54.175Z,10.08
2019-02-19T12:27:59.368Z,10.23
2019-02-19T12:32:04.417Z,10.21
2019-02-19T12:36:09.544Z,10.75
2019-02-19T12:40:14.662Z,10.80
2019-02-19T12:44:39.015Z,11.51
2019-02-19T12:48:44.452Z,11.98
2019-02-19T12:52:49.534Z,11.28
2019-02-19T12:56:54.730Z,11.37
2019-02-19T13:00:59.879Z,11.76
2019-02-19T13:05:05.402Z,11.09
2019-02-19T13:13:47.791Z,12.03
2019-02-19T13:18:12.219Z,10.64
2019-02-19T13:22:17.305Z,10.43
2019-02-19T13:26:22.385Z,10.70
2019-02-19T13:30:46.663Z,12.41
2019-02-19T13:35:10.987Z,12.88
2019-02-19T13:39:16.098Z,12.95
2019-02-19T13:47:51.058Z,13.18
2019-02-19T13:56:12.826Z,13.24
2019-02-19T14:00:36.983Z,12.59
2019-02-19T14:04:42.372Z,11.92
2019-02-19T14:08:47.527Z,11.53
2019-02-19T14:21:59.050Z,11.00
2019-02-19T14:26:23.137Z,10.74
2019-02-19T14:30:48.848Z,10.61
2019-02-19T14:35:13.016Z,11.28
2019-02-19T14:39:37.208Z,12.19
2019-02-19T14:44:06.743Z,11.90
2019-02-19T14:48:30.780Z,11.58
2019-02-19T14:57:11.889Z,11.40
2019-02-19T15:01:55.001Z,11.50
2019-02-19T15:06:38.198Z,11.81
2019-02-19T15:11:17.356Z,11.85
2019-02-19T15:15:30.431Z,11.04
2019-02-19T15:19:54.578Z,11.64
2019-02-19T15:24:18.997Z,10.90
2019-02-19T15:28:43.144Z,10.55
2019-02-19T15:33:07.234Z,10.85
2019-02-19T15:37:50.347Z,11.09
2019-02-19T15:42:14.418Z,10.70
2019-02-19T15:46:40.244Z,10.34
2019-02-19T15:51:04.275Z,10.28
2019-02-19T15:55:28.347Z,10.16
2019-02-19T15:59:52.499Z,10.21
2019-02-19T16:04:16.829Z,10.11
2019-02-19T16:08:40.928Z,9.87
2019-02-19T16:13:04.977Z,9.78
2019-02-19T16:17:29.055Z,9.67
2019-02-19T16:21:53.150Z,9.56
2019-02-19T16:26:33.131Z,9.47
2019-02-19T16:30:50.048Z,9.36
2019-02-19T16:35:14.200Z,9.35
2019-02-19T16:39:28.789Z,9.24
2019-02-19T16:43:41.647Z,9.18
2019-02-19T16:48:05.739Z,9.03
2019-02-19T16:52:29.867Z,9.04
2019-02-19T16:57:13.014Z,8.92
2019-02-19T17:01:37.162Z,8.89
2019-02-19T17:06:01.312Z,8.83
2019-02-19T17:10:26.799Z,8.76
2019-02-19T17:15:09.911Z,8.66
2019-02-19T17:19:54.803Z,8.50
2019-02-19T17:24:18.873Z,8.44
2019-02-19T17:28:54.490Z,8.14
2019-02-19T17:33:18.597Z,8.14
2019-02-19T17:37:42.782Z,8.11
2019-02-19T17:41:53.331Z,7.98
2019-02-19T17:46:16.820Z,8.00
2019-02-19T17:51:01.751Z,7.88
2019-02-19T17:55:25.897Z,7.88
2019-02-19T17:59:38.423Z,7.90
2019-02-19T18:03:49.281Z,7.82
2019-02-19T18:08:13.387Z,7.78
2019-02-19T18:12:37.489Z,7.75
2019-02-19T18:17:01.605Z,7.71
2019-02-19T18:25:24.377Z,7.75
2019-02-19T18:29:29.703Z,7.67
2019-02-19T18:33:35.149Z,7.60
2019-02-19T18:37:40.207Z,7.63
2019-02-19T18:41:45.411Z,7.54
2019-02-19T18:45:50.618Z,7.51
2019-02-19T18:49:55.720Z,7.51
2019-02-19T18:54:19.929Z,7.45
2019-02-19T18:58:44.067Z,7.30
2019-02-19T19:02:49.224Z,7.18
2019-02-19T19:06:54.369Z,7.28
2019-02-19T19:10:59.564Z,7.13
2019-02-19T19:15:04.922Z,7.09
2019-02-19T19:19:12.007Z,7.09
2019-02-19T19:23:17.170Z,7.07
2019-02-19T19:27:22.354Z,7.07
2019-02-19T19:31:33.306Z,7.15
2019-02-19T19:35:39.869Z,7.13
2019-02-19T19:39:45.038Z,7.09
2019-02-19T19:43:50.221Z,7.14
2019-02-19T19:47:55.471Z,7.09
2019-02-19T19:52:00.637Z,7.09
2019-02-19T19:56:05.771Z,7.13
2019-02-19T20:04:48.066Z,7.13
2019-02-19T20:08:53.229Z,7.09
2019-02-19T20:13:11.419Z,7.09
2019-02-19T20:17:17.006Z,7.08
2019-02-19T20:26:11.309Z,7.05
2019-02-19T20:30:16.559Z,7.00
2019-02-19T20:34:21.764Z,6.91
2019-02-19T20:38:38.978Z,6.87
2019-02-19T20:42:44.191Z,6.73
2019-02-19T20:47:08.477Z,6.69
2019-02-19T20:51:13.671Z,6.58
2019-02-19T20:55:18.781Z,6.57
2019-02-19T20:59:42.889Z,6.53
2019-02-19T21:03:48.289Z,6.41
2019-02-19T21:07:53.504Z,6.45
2019-02-19T21:11:58.646Z,6.32
2019-02-19T21:16:03.855Z,6.22
2019-02-19T21:24:26.581Z,6.17
2019-02-19T21:32:48.433Z,6.00
2019-02-19T21:36:53.519Z,5.95
2019-02-19T21:40:58.696Z,5.97
2019-02-19T21:45:22.857Z,5.95
2019-02-19T21:49:28.081Z,5.84
2019-02-19T21:53:33.245Z,5.78
2019-02-19T21:57:38.354Z,5.69
2019-02-19T22:01:43.616Z,5.66
2019-02-19T22:05:48.800Z,5.62
2019-02-19T22:09:53.861Z,5.63
2019-02-19T22:14:18.109Z,5.54
2019-02-19T22:18:23.235Z,5.47
2019-02-19T22:22:30.205Z,5.52
2019-02-19T22:26:35.401Z,5.51
2019-02-19T22:30:47.591Z,5.50
2019-02-19T22:34:52.765Z,5.49
2019-02-19T22:39:16.980Z,5.48
2019-02-19T22:43:22.097Z,5.45
2019-02-19T22:47:27.408Z,5.44
2019-02-19T22:51:32.582Z,5.43
2019-02-19T22:55:59.547Z,5.51
2019-02-19T23:00:07.664Z,5.61
2019-02-19T23:04:33.641Z,5.71
2019-02-19T23:08:40.404Z,5.77
2019-02-19T23:12:47.200Z,5.62
2019-02-19T23:16:52.330Z,5.73
2019-02-19T23:25:14.454Z,5.68
2019-02-19T23:29:19.580Z,5.68
2019-02-19T23:33:24.702Z,5.67
2019-02-19T23:37:48.837Z,5.64
2019-02-19T23:41:53.946Z,5.71
2019-02-19T23:45:59.103Z,5.66
2019-02-19T23:50:04.368Z,5.60
2019-02-19T23:54:09.629Z,5.39
2019-02-19T23:58:14.746Z,5.35
